Time;durP1;ratioP1;P1;durP2;ratioP2;P2;SDS_P1;SDS_P2;PMS_P1;PMS_P2;Temp;Humidity;BMP_temperature;BMP_pressure;BME280_temperature;BME280_humidity;BME280_pressure;Samples;Min_cycle;Max_cycle;Signal;HPM_P1;HPM_P2
2021/06/30 00:01:30;;;;;;;5.12;4.72;;;;;;;19.97;68.52;99984.58;1641579;86;20153;-74
2021/06/30 00:03:56;;;;;;;5.20;4.90;;;;;;;19.94;68.61;99983.73;1637307;86;21050;-72
2021/06/30 00:06:22;;;;;;;4.42;4.10;;;;;;;20.05;67.30;99997.35;1607025;87;21060;-75
2021/06/30 00:08:49;;;;;;;5.53;5.12;;;;;;;19.99;67.23;99995.95;1633564;86;21093;-75
2021/06/30 00:11:16;;;;;;;5.03;4.62;;;;;;;19.92;68.09;99998.05;1637371;85;20976;-75
2021/06/30 00:13:43;;;;;;;4.92;4.55;;;;;;;19.95;67.80;100003.50;1635479;86;21023;-76
2021/06/30 00:16:10;;;;;;;5.03;4.47;;;;;;;19.98;67.78;100003.77;1635909;86;21042;-75
2021/06/30 00:18:36;;;;;;;5.42;4.70;;;;;;;20.00;66.98;99998.95;1611125;87;21041;-75
2021/06/30 00:21:06;;;;;;;6.58;5.15;;;;;;;19.92;67.79;99999.95;1639104;84;21049;-75
2021/06/30 00:23:33;;;;;;;5.80;5.40;;;;;;;19.94;67.93;99997.80;1633554;86;21540;-75
2021/06/30 00:25:59;;;;;;;5.75;5.25;;;;;;;20.00;67.43;99992.19;1630037;86;21542;-74
2021/06/30 00:28:25;;;;;;;5.90;5.08;;;;;;;20.09;67.62;99993.85;1640323;85;21467;-76
2021/06/30 00:30:52;;;;;;;4.95;4.53;;;;;;;20.23;66.38;100000.45;1633636;85;21098;-75
2021/06/30 00:33:18;;;;;;;5.08;4.37;;;;;;;20.18;66.77;99999.61;1633819;86;21065;-74
2021/06/30 00:35:44;;;;;;;8.08;4.35;;;;;;;20.19;66.20;99996.64;1639979;86;21017;-74
2021/06/30 00:38:10;;;;;;;;;;;;;;;20.07;65.94;99987.08;1644303;86;21121;-73
2021/06/30 00:40:38;;;;;;;5.53;5.22;;;;;;;19.94;67.27;99986.44;1642123;86;20167;-76
2021/06/30 00:43:04;;;;;;;5.10;4.70;;;;;;;19.89;67.57;99989.12;1641521;85;21019;-74
2021/06/30 00:45:31;;;;;;;6.53;4.95;;;;;;;19.96;67.52;99989.70;1607767;87;21175;-76
2021/06/30 00:47:58;;;;;;;5.28;4.87;;;;;;;20.07;67.37;99992.49;1631831;86;21603;-74
2021/06/30 00:50:24;;;;;;;;;;;;;;;20.17;66.84;99984.43;1622860;86;20997;-75
2021/06/30 00:52:50;;;;;;;5.30;4.80;;;;;;;20.19;66.37;99984.47;1636794;86;20109;-74
2021/06/30 00:55:16;;;;;;;;;;;;;;;20.08;66.27;99979.22;1607712;87;21687;-75
2021/06/30 00:57:44;;;;;;;4.80;4.50;;;;;;;20.01;66.57;99985.69;1615454;86;20155;-75
2021/06/30 01:00:13;;;;;;;4.78;4.47;;;;;;;19.88;66.67;99977.20;1625769;86;21034;-73
2021/06/30 01:02:39;;;;;;;5.28;4.97;;;;;;;19.74;67.25;99976.29;1640402;86;21047;-74
2021/06/30 01:05:06;;;;;;;7.80;3.98;;;;;;;19.65;67.19;99974.55;1611408;87;21022;-75
2021/06/30 01:07:33;;;;;;;3.60;3.40;;;;;;;19.59;67.80;99974.75;1602857;87;21071;-75
2021/06/30 01:10:00;;;;;;;4.72;4.40;;;;;;;19.57;68.22;99985.01;1633158;86;21610;-76
2021/06/30 01:12:27;;;;;;;5.75;4.53;;;;;;;19.56;68.33;99987.45;1638220;86;21302;-75
2021/06/30 01:14:53;;;;;;;8.30;4.60;;;;;;;19.56;68.72;99986.91;1606158;86;21093;-75
2021/06/30 01:17:20;;;;;;;5.00;4.47;;;;;;;19.64;68.46;99985.62;1615810;86;21644;-75
2021/06/30 01:19:47;;;;;;;4.47;4.17;;;;;;;19.67;68.50;99991.88;1602290;88;21141;-74
2021/06/30 01:22:14;;;;;;;4.33;3.90;;;;;;;19.74;68.20;99986.27;1617683;86;21075;-76
2021/06/30 01:24:42;;;;;;;4.05;3.83;;;;;;;19.80;68.18;99994.73;1627681;87;21079;-75
2021/06/30 01:27:08;;;;;;;4.45;4.15;;;;;;;19.90;67.58;99992.09;1618805;86;21118;-76
2021/06/30 01:29:35;;;;;;;5.20;4.20;;;;;;;20.01;66.96;99988.94;1623015;86;21547;-76
2021/06/30 01:32:01;;;;;;;4.40;4.15;;;;;;;19.99;66.50;99985.67;1636983;86;21627;-75
2021/06/30 01:34:27;;;;;;;4.03;3.67;;;;;;;19.94;66.67;99985.08;1637754;86;21055;-74
2021/06/30 01:36:56;;;;;;;4.45;4.05;;;;;;;19.89;67.15;99987.77;1636755;86;21003;-75
2021/06/30 01:39:24;;;;;;;3.90;3.50;;;;;;;19.90;67.52;99993.44;1640494;86;21638;-75
2021/06/30 01:41:52;;;;;;;3.90;3.70;;;;;;;19.99;66.62;99988.38;1613992;85;21113;-74
2021/06/30 01:44:19;;;;;;;4.58;4.28;;;;;;;19.91;66.16;99991.55;1621667;87;21092;-75
2021/06/30 01:46:47;;;;;;;4.25;3.95;;;;;;;19.71;66.72;99993.53;1614305;87;21106;-75
2021/06/30 01:49:13;;;;;;;4.92;4.42;;;;;;;19.58;67.60;99996.92;1626669;86;21046;-76
2021/06/30 01:51:40;;;;;;;4.37;4.08;;;;;;;19.53;67.30;99999.56;1629275;86;21047;-75
2021/06/30 01:54:11;;;;;;;4.35;3.95;;;;;;;19.40;67.29;99999.98;1617547;86;21031;-75
2021/06/30 01:56:37;;;;;;;4.58;4.28;;;;;;;19.23;67.72;100007.67;1642036;85;21622;-75
2021/06/30 01:59:13;;;;;;;4.87;3.77;;;;;;;19.05;68.59;100006.11;1610151;86;21589;-75
2021/06/30 02:01:41;;;;;;;5.80;4.60;;;;;;;19.00;69.26;100007.93;1620058;86;21091;-74
2021/06/30 02:04:09;;;;;;;4.67;4.15;;;;;;;19.02;70.10;100014.73;1625154;86;21120;-75
2021/06/30 02:06:43;;;;;;;3.52;3.35;;;;;;;19.18;69.77;100008.95;1637466;86;21062;-76
2021/06/30 02:09:12;;;;;;;4.55;3.98;;;;;;;19.35;69.79;100016.98;1638312;85;21104;-77
2021/06/30 02:11:41;;;;;;;4.62;4.33;;;;;;;19.62;68.83;100008.84;1640443;84;21162;-78
2021/06/30 02:14:09;;;;;;;4.28;4.08;;;;;;;19.84;68.03;100010.71;1632477;86;21057;-78
2021/06/30 02:16:37;;;;;;;4.35;3.87;;;;;;;20.09;67.03;100012.79;1634211;86;21024;-79
2021/06/30 02:19:06;;;;;;;4.12;3.85;;;;;;;20.34;66.07;100016.75;1633487;86;21042;-81
2021/06/30 02:21:34;;;;;;;4.70;4.30;;;;;;;20.52;65.04;100019.58;1601486;87;21088;-77
2021/06/30 02:24:02;;;;;;;4.87;4.47;;;;;;;20.64;64.66;100017.49;1606463;87;21046;-79
2021/06/30 02:26:29;;;;;;;4.40;4.00;;;;;;;20.79;64.23;100016.23;1636352;85;21099;-80
2021/06/30 02:28:57;;;;;;;5.60;4.03;;;;;;;;;;1634639;86;21033;-78
2021/06/30 02:31:24;;;;;;;4.15;3.77;;;;;;;21.54;61.99;100021.90;1622816;86;21585;-80
2021/06/30 02:33:51;;;;;;;4.37;3.92;;;;;;;21.86;60.87;100015.42;1607497;87;21061;-80
2021/06/30 02:36:19;;;;;;;6.67;4.22;;;;;;;21.96;60.40;100017.60;1628013;86;21090;-82
2021/06/30 02:38:46;;;;;;;3.62;3.25;;;;;;;22.14;60.03;100021.64;1605326;87;21072;-80
2021/06/30 02:41:13;;;;;;;3.40;3.10;;;;;;;22.51;58.92;100022.45;1639036;86;21184;-80
2021/06/30 02:43:41;;;;;;;3.47;3.27;;;;;;;22.89;57.86;100026.94;1647677;86;21055;-81
2021/06/30 02:46:09;;;;;;;4.00;3.70;;;;;;;23.27;56.99;100022.70;1640012;85;21046;-80
2021/06/30 02:48:37;;;;;;;3.45;3.25;;;;;;;23.55;55.62;100019.00;1609485;87;21059;-80
2021/06/30 02:51:05;;;;;;;3.65;3.45;;;;;;;23.62;55.14;100021.39;1627673;86;21063;-81
2021/06/30 02:53:33;;;;;;;3.47;3.20;;;;;;;23.78;54.16;100024.27;1627619;86;21587;-80
2021/06/30 02:56:02;;;;;;;2.70;2.60;;;;;;;23.84;53.79;100020.43;1612977;87;21573;-81
2021/06/30 02:58:29;;;;;;;2.62;2.42;;;;;;;23.90;53.66;100023.40;1634766;86;21071;-81
2021/06/30 03:00:56;;;;;;;3.05;2.87;;;;;;;24.13;52.89;100022.39;1603326;86;21100;-79
2021/06/30 03:03:22;;;;;;;2.80;2.60;;;;;;;24.31;51.88;100016.75;1604814;87;21103;-80
2021/06/30 03:05:48;;;;;;;1.80;1.80;;;;;;;24.45;51.30;100019.63;1636015;86;21071;-80
2021/06/30 03:08:15;;;;;;;3.80;2.90;;;;;;;24.61;51.04;100018.37;1631555;86;21088;-80
2021/06/30 03:10:41;;;;;;;4.08;2.65;;;;;;;24.48;50.56;99976.80;1631870;87;21097;-82
2021/06/30 03:13:07;;;;;;;4.05;2.58;;;;;;;24.91;50.02;100017.75;1630817;85;21046;-82
2021/06/30 03:15:33;;;;;;;4.85;3.02;;;;;;;25.17;49.62;100018.23;1635528;86;21599;-78
2021/06/30 03:18:00;;;;;;;4.75;3.67;;;;;;;25.45;48.79;100012.97;1627766;86;21110;-79
2021/06/30 03:20:26;;;;;;;3.27;2.42;;;;;;;25.58;48.44;100008.66;1626966;86;21148;-81
2021/06/30 03:22:52;;;;;;;2.35;2.33;;;;;;;25.73;48.48;100009.80;1619090;85;21590;-80
2021/06/30 03:25:19;;;;;;;2.90;2.45;;;;;;;26.09;47.46;100002.94;1627942;86;21294;-78
2021/06/30 03:27:45;;;;;;;3.08;2.70;;;;;;;26.39;46.50;100001.03;1632346;85;21697;-80
2021/06/30 03:30:14;;;;;;;3.12;2.80;;;;;;;26.51;46.19;100005.98;1636277;86;21070;-80
2021/06/30 03:32:40;;;;;;;2.50;2.40;;;;;;;26.53;46.02;100005.69;1637695;86;21122;-82
2021/06/30 03:35:08;;;;;;;2.45;2.12;;;;;;;26.65;45.98;100010.67;1636420;85;21206;-78
2021/06/30 03:37:34;;;;;;;2.62;2.52;;;;;;;26.82;45.40;100008.12;1636253;86;21070;-80
2021/06/30 03:40:00;;;;;;;2.62;2.50;;;;;;;26.88;44.94;100011.03;1636177;86;21105;-80
2021/06/30 03:42:27;;;;;;;3.42;2.52;;;;;;;26.83;44.99;100016.59;1639006;86;21095;-80
2021/06/30 03:44:53;;;;;;;2.42;2.25;;;;;;;26.71;45.26;100014.38;1612840;86;21025;-79
2021/06/30 03:47:20;;;;;;;2.40;2.20;;;;;;;26.66;44.99;100010.37;1633241;86;21138;-78
2021/06/30 03:49:46;;;;;;;2.70;2.50;;;;;;;26.67;44.66;100011.18;1638438;86;21035;-80
2021/06/30 03:52:12;;;;;;;2.65;2.17;;;;;;;26.68;44.78;100008.72;1640480;85;21056;-78
2021/06/30 03:54:38;;;;;;;2.40;2.30;;;;;;;26.67;44.87;100008.45;1637406;86;21015;-78
2021/06/30 03:59:17;;;;;;;;;;;;;;;26.73;44.94;100012.69;1804676;79;23401;-79
2021/06/30 04:01:43;;;;;;;4.17;2.87;;;;;;;26.64;45.18;100009.08;1742748;80;20122;-80
2021/06/30 04:04:12;;;;;;;2.70;2.50;;;;;;;26.71;45.22;100012.19;1731778;81;21493;-80
2021/06/30 04:06:39;;;;;;;2.83;2.62;;;;;;;26.92;44.80;100007.94;1717335;81;21001;-80
2021/06/30 04:09:06;;;;;;;2.65;2.55;;;;;;;27.29;44.17;100015.62;1733880;81;21053;-80
2021/06/30 04:11:33;;;;;;;2.55;1.85;;;;;;;27.36;43.80;100016.58;1722365;81;21006;-81
2021/06/30 04:14:01;;;;;;;3.62;2.17;;;;;;;27.30;43.57;100018.62;1669071;83;21016;-75
2021/06/30 04:16:27;;;;;;;1.95;1.85;;;;;;;27.24;43.40;100013.53;1671277;83;21002;-76
2021/06/30 04:18:54;;;;;;;4.92;2.05;;;;;;;27.24;43.62;100021.20;1663301;84;21635;-80
2021/06/30 04:21:21;;;;;;;3.80;2.12;;;;;;;27.50;43.24;100032.41;1669383;84;21086;-80
2021/06/30 04:23:47;;;;;;;2.98;2.87;;;;;;;27.82;43.12;100033.30;1686461;83;21033;-79
2021/06/30 04:26:14;;;;;;;3.35;2.70;;;;;;;28.25;41.82;100025.12;1691820;83;21060;-79
2021/06/30 04:28:43;;;;;;;2.05;1.95;;;;;;;28.47;41.27;100025.63;1689521;83;21008;-79
2021/06/30 04:31:08;;;;;;;4.28;2.30;;;;;;;28.41;41.22;100023.59;1684186;83;21609;-78
2021/06/30 04:33:37;;;;;;;2.40;2.20;;;;;;;28.38;41.38;100030.27;1686871;83;21019;-79
2021/06/30 04:36:03;;;;;;;2.70;1.50;;;;;;;28.48;41.21;100028.60;1641308;86;21053;-80
2021/06/30 04:38:32;;;;;;;1.57;1.47;;;;;;;28.49;40.58;100034.34;1632468;86;21090;-80
2021/06/30 04:40:58;;;;;;;1.72;1.62;;;;;;;27.46;40.43;99871.28;1641631;86;21081;-81
2021/06/30 04:43:24;;;;;;;1.67;1.00;;;;;;;28.62;39.78;100034.83;1629056;86;21061;-80
2021/06/30 04:45:52;;;;;;;2.55;0.88;;;;;;;28.84;39.74;100024.34;1656664;85;21072;-81
2021/06/30 04:48:19;;;;;;;1.20;1.20;;;;;;;29.05;38.57;100025.12;1645883;85;21041;-82
2021/06/30 04:50:46;;;;;;;1.07;1.07;;;;;;;29.10;38.42;100027.69;1641191;86;21009;-80
2021/06/30 04:53:13;;;;;;;0.80;0.80;;;;;;;29.11;38.64;100021.09;1637047;86;20973;-80
2021/06/30 04:55:39;;;;;;;0.78;0.60;;;;;;;29.12;37.78;100013.08;1656010;84;21087;-81
2021/06/30 04:58:08;;;;;;;0.68;0.45;;;;;;;28.89;37.77;100017.31;1642806;85;21097;-80
2021/06/30 05:00:35;;;;;;;2.77;0.50;;;;;;;28.42;37.85;100012.86;1672854;83;21005;-79
2021/06/30 05:03:02;;;;;;;0.82;0.82;;;;;;;27.98;39.24;100011.84;1688709;83;20997;-81
2021/06/30 05:05:28;;;;;;;2.58;0.85;;;;;;;27.70;40.38;100013.30;1691959;83;21018;-80
2021/06/30 05:07:55;;;;;;;3.55;0.98;;;;;;;27.63;40.48;100008.02;1687073;83;20994;-80
2021/06/30 05:10:21;;;;;;;1.47;0.70;;;;;;;27.67;40.45;100002.16;1695839;83;20976;-81
2021/06/30 05:12:51;;;;;;;2.08;0.80;;;;;;;27.73;39.66;100009.16;1681557;83;21000;-80
2021/06/30 05:15:19;;;;;;;1.12;1.07;;;;;;;27.65;40.61;100009.34;1682918;83;21057;-81
2021/06/30 05:17:45;;;;;;;0.55;0.55;;;;;;;27.79;40.20;100011.20;1679195;83;21044;-81
2021/06/30 05:20:12;;;;;;;1.30;0.55;;;;;;;28.11;39.10;100015.05;1683532;83;21045;-82
2021/06/30 05:22:39;;;;;;;1.37;0.45;;;;;;;28.29;38.24;100011.03;1682808;83;21026;-81
2021/06/30 05:25:05;;;;;;;0.50;0.50;;;;;;;28.37;39.23;100006.70;1688412;83;21141;-86
2021/06/30 05:27:33;;;;;;;0.35;0.35;;;;;;;28.54;36.79;100009.00;1688958;83;21042;-81
2021/06/30 05:29:59;;;;;;;0.30;0.30;;;;;;;28.46;36.96;100015.23;1684379;83;21031;-81
2021/06/30 05:32:25;;;;;;;1.17;1.00;;;;;;;28.50;35.87;100012.64;1681900;83;21004;-81
2021/06/30 05:34:51;;;;;;;1.00;1.00;;;;;;;28.31;37.17;100018.37;1687597;82;21106;-81
2021/06/30 05:37:17;;;;;;;0.60;0.60;;;;;;;28.15;37.33;100020.15;1686494;83;20983;-80
2021/06/30 05:39:43;;;;;;;0.57;0.20;;;;;;;28.21;36.50;100013.97;1646235;85;21267;-82
2021/06/30 05:42:10;;;;;;;0.20;0.20;;;;;;;28.44;35.48;100007.86;1684939;83;21039;-81
2021/06/30 05:44:36;;;;;;;1.70;0.50;;;;;;;28.54;35.05;100013.69;1681967;83;21068;-82
2021/06/30 05:47:03;;;;;;;0.33;0.33;;;;;;;28.15;35.66;100007.81;1678942;83;21067;-82
2021/06/30 05:49:30;;;;;;;0.30;0.30;;;;;;;27.92;36.20;100005.68;1681611;83;21507;-83
2021/06/30 05:51:56;;;;;;;2.25;0.45;;;;;;;27.83;36.21;100005.34;1683663;83;21138;-81
2021/06/30 05:54:22;;;;;;;1.75;0.30;;;;;;;27.61;35.71;100011.06;1676839;83;21005;-82
2021/06/30 05:56:48;;;;;;;0.55;0.20;;;;;;;27.60;35.77;100019.04;1655640;85;21103;-81
2021/06/30 05:59:14;;;;;;;0.33;0.10;;;;;;;27.85;35.05;100020.91;1636105;86;21060;-82
2021/06/30 06:01:42;;;;;;;0.50;0.10;;;;;;;28.03;33.88;100022.67;1685807;83;21093;-82
2021/06/30 06:04:08;;;;;;;0.30;0.30;;;;;;;28.02;32.92;100021.04;1702680;83;20991;-82
2021/06/30 06:06:34;;;;;;;0.20;0.20;;;;;;;27.84;32.99;100026.95;1702258;83;20967;-81
2021/06/30 06:09:00;;;;;;;0.10;0.10;;;;;;;27.65;33.41;100018.09;1699220;83;20983;-82
2021/06/30 06:11:26;;;;;;;0.35;0.30;;;;;;;27.67;34.03;100015.85;1698722;83;21093;-82
2021/06/30 06:13:52;;;;;;;0.40;0.40;;;;;;;27.97;33.63;100018.42;1664511;84;21018;-81
2021/06/30 06:16:21;;;;;;;1.45;0.35;;;;;;;28.14;33.97;100024.03;1673120;84;21086;-83
2021/06/30 06:18:49;;;;;;;1.02;0.30;;;;;;;28.27;33.68;100016.81;1668599;84;21129;-83
2021/06/30 06:21:16;;;;;;;0.62;0.45;;;;;;;28.36;32.99;100016.87;1676313;84;21092;-85
2021/06/30 06:23:43;;;;;;;0.72;0.17;;;;;;;28.41;33.66;100021.42;1660760;84;21053;-85
2021/06/30 06:26:10;;;;;;;0.53;0.53;;;;;;;28.54;32.48;100025.45;1665691;85;21119;-85
2021/06/30 06:28:36;;;;;;;1.37;0.30;;;;;;;28.47;32.98;100018.20;1668758;85;21657;-83
2021/06/30 06:31:05;;;;;;;2.17;0.60;;;;;;;28.41;33.42;100027.70;1664669;85;21113;-83
2021/06/30 06:33:31;;;;;;;1.80;0.70;;;;;;;28.29;34.84;100023.36;1669092;83;20959;-82
2021/06/30 06:35:57;;;;;;;0.40;0.40;;;;;;;28.57;33.91;100025.94;1703029;83;21027;-83
2021/06/30 06:38:25;;;;;;;0.40;0.20;;;;;;;28.83;33.51;100015.86;1705920;83;21066;-82
2021/06/30 06:40:51;;;;;;;0.90;0.40;;;;;;;28.88;33.61;100012.97;1691619;83;21552;-81
2021/06/30 06:43:19;;;;;;;0.70;0.55;;;;;;;28.99;33.59;100009.91;1690021;83;21055;-83
2021/06/30 06:45:46;;;;;;;2.60;0.50;;;;;;;29.13;33.16;100006.51;1705106;82;21082;-82
2021/06/30 06:48:12;;;;;;;1.72;0.45;;;;;;;29.16;33.35;100007.25;1705070;83;21504;-81
2021/06/30 06:50:39;;;;;;;0.20;0.20;;;;;;;29.20;33.03;100004.67;1694781;83;21637;-82
2021/06/30 06:53:05;;;;;;;1.50;0.50;;;;;;;29.44;32.82;99997.31;1700818;83;21106;-83
2021/06/30 06:55:33;;;;;;;1.95;0.40;;;;;;;29.66;31.97;99994.38;1691406;81;21053;-82
2021/06/30 06:57:59;;;;;;;1.85;0.98;;;;;;;29.79;31.63;99990.45;1667114;84;21101;-81
2021/06/30 07:00:25;;;;;;;7.90;0.50;;;;;;;29.87;31.68;100004.73;1682237;84;21034;-82
2021/06/30 07:02:51;;;;;;;4.95;0.40;;;;;;;29.77;30.07;99998.22;1695140;83;21183;-82
2021/06/30 07:05:18;;;;;;;1.80;0.45;;;;;;;29.63;30.69;99999.17;1685546;83;21081;-84
2021/06/30 07:07:45;;;;;;;0.98;0.50;;;;;;;29.69;30.92;100006.11;1682618;83;21499;-81
2021/06/30 07:10:13;;;;;;;1.30;0.28;;;;;;;29.86;29.38;100008.62;1689621;83;21026;-83
2021/06/30 07:12:39;;;;;;;1.12;0.42;;;;;;;29.84;29.82;100007.57;1682896;82;21178;-82
2021/06/30 07:15:07;;;;;;;1.87;0.30;;;;;;;29.77;30.23;100000.96;1681634;83;21054;-83
2021/06/30 07:17:35;;;;;;;1.72;0.40;;;;;;;29.88;29.27;100003.03;1692012;83;21070;-81
2021/06/30 07:20:08;;;;;;;2.22;0.20;;;;;;;29.95;29.42;99997.05;1688613;83;20967;-83
2021/06/30 07:22:35;;;;;;;0.70;0.40;;;;;;;29.82;28.75;99999.39;1692367;80;21022;-83
2021/06/30 07:25:04;;;;;;;0.82;0.30;;;;;;;29.56;29.64;100004.34;1692796;79;21023;-78
2021/06/30 07:27:31;;;;;;;6.40;0.70;;;;;;;29.43;29.96;100003.95;1692742;83;21109;-78
2021/06/30 07:29:57;;;;;;;3.15;0.30;;;;;;;29.55;30.50;99998.59;1689339;83;21451;-80
2021/06/30 07:32:23;;;;;;;3.70;0.30;;;;;;;29.72;30.12;99992.28;1688288;83;20994;-78
2021/06/30 07:34:49;;;;;;;2.67;0.30;;;;;;;29.83;29.67;100002.40;1686760;83;21152;-82
2021/06/30 07:37:17;;;;;;;0.82;0.20;;;;;;;29.81;29.62;100000.55;1679921;83;21086;-82
2021/06/30 07:39:43;;;;;;;1.10;0.55;;;;;;;29.77;29.70;99999.02;1689108;83;21031;-78
2021/06/30 07:42:08;;;;;;;1.32;0.30;;;;;;;29.82;29.77;99990.61;1686949;83;22241;-79
2021/06/30 07:44:35;;;;;;;0.70;0.47;;;;;;;29.83;30.15;99988.66;1686942;83;21118;-79
2021/06/30 07:47:01;;;;;;;0.60;0.50;;;;;;;29.86;30.22;99991.56;1693301;83;20987;-79
2021/06/30 07:49:28;;;;;;;0.55;0.20;;;;;;;29.90;29.97;99991.72;1691522;83;21070;-80
2021/06/30 07:51:54;;;;;;;2.70;0.50;;;;;;;29.82;29.91;99991.98;1690765;83;21028;-82
2021/06/30 07:54:20;;;;;;;1.25;0.40;;;;;;;29.62;30.33;99981.64;1692887;83;21611;-79
2021/06/30 07:56:50;;;;;;;0.42;0.35;;;;;;;29.49;30.94;99977.36;1688785;83;21611;-80
2021/06/30 07:59:17;;;;;;;1.25;0.37;;;;;;;29.45;30.48;99982.47;1689626;82;21191;-79
2021/06/30 08:01:44;;;;;;;4.80;1.10;;;;;;;29.32;31.25;99984.23;1705451;82;21525;-80
2021/06/30 08:04:13;;;;;;;3.62;0.30;;;;;;;29.25;31.32;99983.36;1708481;82;21574;-80
2021/06/30 08:06:40;;;;;;;3.40;0.42;;;;;;;29.14;31.19;99983.44;1704689;82;21103;-78
2021/06/30 08:09:07;;;;;;;2.87;0.70;;;;;;;28.92;31.52;99987.09;1702398;82;21022;-78
2021/06/30 08:11:35;;;;;;;1.95;1.05;;;;;;;28.77;32.13;99979.31;1695275;82;20997;-80
2021/06/30 08:14:01;;;;;;;2.30;0.45;;;;;;;28.73;32.72;99975.83;1699036;82;21579;-79
2021/06/30 08:16:29;;;;;;;3.60;0.75;;;;;;;28.81;33.45;99975.60;1709725;82;21618;-79
2021/06/30 08:18:55;;;;;;;3.12;0.60;;;;;;;28.84;33.30;99984.57;1700164;82;21098;-81
2021/06/30 08:21:23;;;;;;;5.25;0.85;;;;;;;28.76;33.26;99983.17;1710111;82;20995;-79
2021/06/30 08:23:51;;;;;;;1.60;0.82;;;;;;;28.69;33.23;99985.03;1708087;82;20992;-80
2021/06/30 08:26:17;;;;;;;1.57;0.40;;;;;;;28.70;33.43;99986.05;1706890;82;21609;-81
2021/06/30 08:28:44;;;;;;;0.85;0.40;;;;;;;28.78;33.47;99989.94;1702852;82;21034;-81
2021/06/30 08:31:10;;;;;;;1.17;0.68;;;;;;;28.86;33.26;99994.66;1700419;82;21523;-81
2021/06/30 08:33:36;;;;;;;1.22;0.40;;;;;;;28.91;32.75;99989.03;1705226;82;21054;-80
2021/06/30 08:36:04;;;;;;;2.17;0.70;;;;;;;28.92;32.95;99986.52;1700865;82;21559;-82
2021/06/30 08:38:31;;;;;;;1.52;0.98;;;;;;;28.95;33.37;99985.05;1702397;82;21059;-80
2021/06/30 08:41:00;;;;;;;1.40;0.95;;;;;;;29.04;32.82;99991.94;1693513;82;21058;-80
2021/06/30 08:43:28;;;;;;;2.77;0.95;;;;;;;28.96;33.10;99985.88;1699910;82;21155;-79
2021/06/30 08:45:57;;;;;;;1.15;0.98;;;;;;;28.91;33.50;99990.40;1706355;82;21064;-81
2021/06/30 08:48:28;;;;;;;2.83;1.27;;;;;;;28.95;33.63;99992.48;1693298;82;21528;-79
2021/06/30 08:51:02;;;;;;;3.37;1.07;;;;;;;28.98;33.46;99993.23;1705668;82;21480;-80
2021/06/30 08:53:31;;;;;;;1.05;0.95;;;;;;;29.01;33.27;99990.66;1704613;82;21054;-79
2021/06/30 08:55:58;;;;;;;2.00;0.98;;;;;;;29.04;33.08;99992.73;1697465;82;21066;-79
2021/06/30 08:58:24;;;;;;;2.58;1.07;;;;;;;29.05;32.83;99994.94;1694735;82;20980;-78
2021/06/30 09:00:51;;;;;;;2.35;0.85;;;;;;;29.02;32.77;99990.88;1670423;83;21019;-79
2021/06/30 09:03:19;;;;;;;2.47;0.80;;;;;;;28.99;33.22;99993.45;1684429;83;20994;-81
2021/06/30 09:08:45;;;;;;;2.72;1.10;;;;;;;28.88;33.83;99991.60;1679814;83;21025;-79
2021/06/30 09:11:15;;;;;;;2.15;0.90;;;;;;;28.82;33.58;99984.09;1664204;83;21086;-79
2021/06/30 09:13:43;;;;;;;4.00;1.05;;;;;;;28.76;33.21;99985.91;1656250;85;21631;-79
2021/06/30 09:16:10;;;;;;;3.05;1.12;;;;;;;28.68;33.29;99980.66;1643431;85;21521;-79
2021/06/30 09:18:42;;;;;;;1.52;0.90;;;;;;;28.61;33.65;99983.05;1635854;85;21537;-81
2021/06/30 09:21:24;;;;;;;4.30;1.05;;;;;;;28.60;33.79;99980.88;1650804;85;21074;-80
2021/06/30 09:24:12;;;;;;;1.60;1.50;;;;;;;28.63;33.29;99977.51;1641039;85;21028;-78
2021/06/30 09:26:50;;;;;;;2.30;1.00;;;;;;;28.63;33.82;99972.02;1650432;85;20996;-80
2021/06/30 09:29:19;;;;;;;1.27;0.68;;;;;;;28.74;33.92;99971.14;1644284;85;21017;-79
2021/06/30 09:31:48;;;;;;;1.30;0.70;;;;;;;28.40;33.45;99908.78;1647568;85;21232;-79
2021/06/30 09:34:21;;;;;;;2.92;0.60;;;;;;;28.83;33.46;99969.23;1644226;85;21065;-76
2021/06/30 09:37:05;;;;;;;1.62;0.50;;;;;;;28.86;33.07;99975.45;1649970;85;21285;-77
2021/06/30 09:39:35;;;;;;;0.90;0.60;;;;;;;28.88;33.09;99965.55;1648816;85;21157;-79
2021/06/30 09:42:09;;;;;;;1.17;0.80;;;;;;;28.82;33.43;99955.83;1654354;85;21078;-79
2021/06/30 09:44:39;;;;;;;1.12;0.72;;;;;;;28.78;33.46;99965.26;1665350;84;21693;-76
2021/06/30 09:47:07;;;;;;;5.87;0.62;;;;;;;28.74;33.45;99956.06;1703351;83;21030;-79
2021/06/30 09:49:37;;;;;;;1.85;0.47;;;;;;;28.68;33.27;99961.45;1700841;83;21559;-79
2021/06/30 09:52:11;;;;;;;4.37;0.70;;;;;;;28.68;33.33;99954.61;1698843;83;21589;-79
2021/06/30 09:54:42;;;;;;;2.25;0.80;;;;;;;28.76;33.41;99947.52;1701426;83;21624;-77
2021/06/30 09:57:17;;;;;;;4.40;0.65;;;;;;;28.81;33.61;99949.55;1697022;83;21034;-80
2021/06/30 09:59:45;;;;;;;1.85;0.80;;;;;;;28.77;33.06;99941.72;1700781;83;21130;-77
2021/06/30 10:02:18;;;;;;;4.70;0.50;;;;;;;28.77;33.31;99952.69;1702200;83;20987;-78
2021/06/30 10:05:00;;;;;;;3.45;0.60;;;;;;;28.76;33.51;99942.83;1662677;84;21044;-78
2021/06/30 10:07:29;;;;;;;5.20;0.93;;;;;;;28.75;33.09;99937.12;1692726;83;20971;-78
2021/06/30 10:10:00;;;;;;;0.95;0.47;;;;;;;28.68;33.14;99936.20;1705359;83;20975;-80
2021/06/30 10:12:31;;;;;;;0.30;0.30;;;;;;;28.66;33.03;99934.35;1680005;83;22177;-80
2021/06/30 10:15:02;;;;;;;1.45;0.42;;;;;;;28.69;32.64;99935.09;1690708;83;21048;-76
2021/06/30 10:17:29;;;;;;;1.75;0.40;;;;;;;28.72;32.21;99939.12;1702883;83;20999;-77
2021/06/30 10:19:59;;;;;;;0.42;0.30;;;;;;;28.73;33.44;99938.80;1693401;83;21072;-77
2021/06/30 10:22:28;;;;;;;1.30;0.50;;;;;;;28.74;33.52;99936.86;1691122;83;21157;-78
2021/06/30 10:24:57;;;;;;;0.53;0.30;;;;;;;28.76;33.59;99930.49;1705907;83;21479;-78
2021/06/30 10:27:25;;;;;;;3.80;0.93;;;;;;;28.86;33.28;99932.94;1695740;83;21119;-77
2021/06/30 10:30:00;;;;;;;2.17;0.47;;;;;;;28.98;33.42;99939.73;1706188;83;21642;-79
2021/06/30 10:32:29;;;;;;;3.22;0.75;;;;;;;29.09;33.31;99935.54;1699592;83;21548;-78
2021/06/30 10:35:04;;;;;;;1.32;0.57;;;;;;;29.16;33.25;99936.44;1696724;83;21053;-78
2021/06/30 10:37:37;;;;;;;1.35;0.57;;;;;;;29.12;33.37;99934.33;1701503;83;21096;-77
2021/06/30 10:40:14;;;;;;;1.50;0.30;;;;;;;29.16;33.29;99931.78;1702950;83;20978;-77
2021/06/30 10:42:47;;;;;;;1.98;0.50;;;;;;;29.11;33.28;99933.28;1699742;83;21130;-79
2021/06/30 10:45:21;;;;;;;1.10;0.60;;;;;;;28.98;33.71;99928.19;1702362;83;21097;-78
2021/06/30 10:48:07;;;;;;;3.05;0.70;;;;;;;28.80;33.59;99935.60;1696971;83;21043;-78
2021/06/30 10:50:47;;;;;;;3.00;0.45;;;;;;;28.72;33.93;99927.58;1697934;83;21032;-78
2021/06/30 10:53:26;;;;;;;0.65;0.50;;;;;;;28.77;34.06;99924.47;1680937;83;21025;-79
2021/06/30 10:55:59;;;;;;;0.60;0.30;;;;;;;28.86;33.94;99921.97;1704247;82;20980;-78
2021/06/30 10:58:31;;;;;;;3.87;0.50;;;;;;;28.92;33.81;99915.19;1686361;83;21083;-77
2021/06/30 11:01:04;;;;;;;2.10;0.47;;;;;;;29.01;33.42;99915.75;1695035;82;21152;-76
2021/06/30 11:03:47;;;;;;;3.47;0.88;;;;;;;29.04;32.97;99906.88;1685814;83;21211;-79
2021/06/30 11:06:24;;;;;;;0.55;0.30;;;;;;;29.07;33.21;99896.64;1688328;83;21021;-77
2021/06/30 11:09:08;;;;;;;1.90;0.57;;;;;;;29.09;33.67;99904.78;1694200;83;21002;-77
2021/06/30 11:11:48;;;;;;;0.60;0.40;;;;;;;29.16;34.02;99901.59;1697549;83;21007;-77
2021/06/30 11:14:18;;;;;;;3.90;0.50;;;;;;;29.19;34.28;99899.56;1688803;83;21018;-77
2021/06/30 11:16:50;;;;;;;1.25;0.40;;;;;;;29.24;34.46;99891.74;1699472;83;21086;-77
2021/06/30 11:19:24;;;;;;;0.90;0.40;;;;;;;29.18;33.93;99883.41;1684861;84;21105;-80
2021/06/30 11:22:08;;;;;;;0.50;0.35;;;;;;;29.06;34.17;99883.47;1704753;84;21471;-79
2021/06/30 11:24:40;;;;;;;0.40;0.40;;;;;;;28.98;33.66;99880.75;1690568;83;21034;-78
2021/06/30 11:29:58;;;;;;;2.05;0.40;;;;;;;28.72;35.09;99874.68;1688424;83;21025;-78
2021/06/30 11:32:39;;;;;;;1.10;0.60;;;;;;;28.67;35.35;99873.45;1698139;83;21538;-77
2021/06/30 11:35:19;;;;;;;0.82;0.60;;;;;;;28.73;35.50;99863.97;1692290;83;20995;-81
2021/06/30 11:37:57;;;;;;;0.55;0.42;;;;;;;28.77;34.75;99866.30;1697247;83;21098;-80
2021/06/30 11:42:58;;;;;;;3.15;0.65;;;;;;;28.73;34.72;99853.00;1692603;83;21391;-77
2021/06/30 11:45:32;;;;;;;4.72;0.88;;;;;;;28.74;35.55;99858.70;1705389;83;21118;-78
2021/06/30 11:48:11;;;;;;;0.65;0.50;;;;;;;28.74;35.61;99857.34;1703563;83;21022;-81